createdAt,value
2017-05-29T00:01:28.720Z,100960.55
2017-05-29T00:03:56.244Z,100957.03
2017-05-29T00:06:23.776Z,100955.37
2017-05-29T00:08:51.335Z,100957.59
2017-05-29T00:11:18.880Z,100960.15
2017-05-29T00:13:46.476Z,100960.41
2017-05-29T00:16:13.995Z,100953.92
2017-05-29T00:18:41.536Z,100950.16
2017-05-29T00:21:09.111Z,100951.93
2017-05-29T00:23:36.633Z,100948.23
2017-05-29T00:26:04.200Z,100948.12
2017-05-29T00:28:31.772Z,100945.54
2017-05-29T00:30:59.320Z,100943.39
2017-05-29T00:33:26.874Z,100938.97
2017-05-29T00:35:54.410Z,100942.27
2017-05-29T00:38:22.339Z,100941.67
2017-05-29T00:40:49.860Z,100940.23
2017-05-29T00:43:17.392Z,100942.73
2017-05-29T00:45:44.951Z,100942.87
2017-05-29T00:48:12.496Z,100946.59
2017-05-29T00:50:40.083Z,100950.41
2017-05-29T00:53:07.655Z,100944.00
2017-05-29T00:55:35.539Z,100940.03
2017-05-29T00:58:03.072Z,100941.31
2017-05-29T01:00:30.592Z,100942.18
2017-05-29T01:02:58.189Z,100942.59
2017-05-29T01:05:25.707Z,100946.08
2017-05-29T01:07:53.256Z,100935.18
2017-05-29T01:10:20.788Z,100934.88
2017-05-29T01:12:48.352Z,100934.05
2017-05-29T01:15:15.872Z,100940.86
2017-05-29T01:17:43.459Z,100940.32
2017-05-29T01:20:11.136Z,100937.85
2017-05-29T01:22:38.671Z,100941.03
2017-05-29T01:25:06.327Z,100941.16
2017-05-29T01:27:33.936Z,100946.80
2017-05-29T01:30:01.491Z,100944.34
2017-05-29T01:32:29.120Z,100942.52
2017-05-29T01:34:56.697Z,100940.75
2017-05-29T01:37:24.348Z,100943.63
2017-05-29T01:39:51.879Z,100941.84
2017-05-29T01:42:19.459Z,100943.88
2017-05-29T01:44:46.971Z,100948.05
2017-05-29T01:47:14.492Z,100948.95
2017-05-29T01:49:42.054Z,100944.09
2017-05-29T01:52:09.571Z,100939.02
2017-05-29T01:54:37.119Z,100933.06
2017-05-29T01:57:04.651Z,100931.60
2017-05-29T01:59:32.233Z,100928.95
2017-05-29T02:01:59.769Z,100928.69
2017-05-29T02:04:27.293Z,100927.05
2017-05-29T02:06:54.848Z,100931.28
2017-05-29T02:09:22.379Z,100922.50
2017-05-29T02:11:49.931Z,100924.63
2017-05-29T02:14:17.462Z,100929.10
2017-05-29T02:16:45.025Z,100929.75
2017-05-29T02:19:12.553Z,100928.84
2017-05-29T02:21:40.081Z,100932.70
2017-05-29T02:24:07.646Z,100932.80
2017-05-29T02:26:35.170Z,100926.99
2017-05-29T02:29:02.792Z,100921.56
2017-05-29T02:31:30.346Z,100919.41
2017-05-29T02:33:57.929Z,100918.77
2017-05-29T02:36:25.488Z,100918.37
2017-05-29T02:38:53.075Z,100913.14
2017-05-29T02:41:20.635Z,100903.03
2017-05-29T02:43:48.161Z,100901.59
2017-05-29T02:46:15.740Z,100899.17
2017-05-29T02:48:43.300Z,100897.77
2017-05-29T02:51:10.894Z,100898.42
2017-05-29T02:53:38.472Z,100893.50
2017-05-29T02:56:06.007Z,100898.86
2017-05-29T02:58:33.572Z,100894.84
2017-05-29T03:01:01.116Z,100899.65
2017-05-29T03:03:28.690Z,100900.23
2017-05-29T03:05:56.220Z,100896.34
2017-05-29T03:08:23.739Z,100887.97
2017-05-29T03:10:51.308Z,100891.76
2017-05-29T03:13:18.853Z,100886.02
2017-05-29T03:15:46.403Z,100879.80
2017-05-29T03:18:13.939Z,100882.70
2017-05-29T03:20:41.508Z,100876.22
2017-05-29T03:23:09.074Z,100872.29
2017-05-29T03:25:36.627Z,100866.28
2017-05-29T03:28:04.192Z,100862.24
2017-05-29T03:30:31.718Z,100857.73
2017-05-29T03:32:59.276Z,100857.59
2017-05-29T03:35:26.808Z,100855.55
2017-05-29T03:37:54.471Z,100853.42
2017-05-29T03:40:22.100Z,100853.81
2017-05-29T03:42:49.629Z,100852.32
2017-05-29T03:45:17.187Z,100848.36
2017-05-29T03:47:44.720Z,100846.56
2017-05-29T03:50:12.272Z,100841.59
2017-05-29T03:52:39.799Z,100843.31
2017-05-29T03:55:07.373Z,100839.09
2017-05-29T03:57:34.899Z,100841.77
2017-05-29T04:00:02.506Z,100841.49
2017-05-29T04:02:30.097Z,100837.11
2017-05-29T04:04:57.742Z,100838.62
2017-05-29T04:07:25.287Z,100841.33
2017-05-29T04:09:52.896Z,100843.14
2017-05-29T04:12:20.447Z,100840.98
2017-05-29T04:14:47.990Z,100840.40
2017-05-29T04:17:15.632Z,100831.76
2017-05-29T04:19:43.158Z,100832.13
2017-05-29T04:22:10.746Z,100829.20
2017-05-29T04:24:38.281Z,100831.14
2017-05-29T04:27:05.807Z,100832.75
2017-05-29T04:29:33.359Z,100837.97
2017-05-29T04:32:00.882Z,100843.53
2017-05-29T04:34:28.449Z,100835.79
2017-05-29T04:36:56.003Z,100839.73
2017-05-29T04:39:23.611Z,100840.05
2017-05-29T04:41:51.189Z,100834.81
2017-05-29T04:44:18.720Z,100840.34
2017-05-29T04:46:46.288Z,100845.16
2017-05-29T04:49:13.828Z,100839.01
2017-05-29T04:51:41.395Z,100832.95
2017-05-29T04:54:08.951Z,100822.50
2017-05-29T04:56:36.491Z,100818.39
2017-05-29T04:59:04.055Z,100816.06
2017-05-29T05:01:31.592Z,100819.91
2017-05-29T05:03:59.159Z,100810.58
2017-05-29T05:06:26.723Z,100818.02
2017-05-29T05:08:54.259Z,100822.73
2017-05-29T05:11:21.903Z,100817.16
2017-05-29T05:13:49.447Z,100824.56
2017-05-29T05:16:16.992Z,100823.08
2017-05-29T05:18:44.536Z,100819.55
2017-05-29T05:21:12.063Z,100823.89
2017-05-29T05:23:39.617Z,100822.15
2017-05-29T05:26:07.207Z,100825.11
2017-05-29T05:28:34.877Z,100821.98
2017-05-29T05:31:02.477Z,100820.97
2017-05-29T05:33:30.691Z,100825.50
2017-05-29T05:35:58.224Z,100830.11
2017-05-29T05:38:25.747Z,100820.28
2017-05-29T05:40:53.314Z,100824.06
2017-05-29T05:43:20.835Z,100814.38
2017-05-29T05:45:48.411Z,100814.38
2017-05-29T05:48:15.935Z,100821.83
2017-05-29T05:50:43.519Z,100817.68
2017-05-29T05:53:11.076Z,100806.05
2017-05-29T05:55:38.588Z,100816.97
2017-05-29T05:58:06.147Z,100816.46
2017-05-29T06:00:33.663Z,100814.87
2017-05-29T06:03:01.207Z,100808.27
2017-05-29T06:05:28.725Z,100810.03
2017-05-29T06:07:56.286Z,100816.78
2017-05-29T06:10:23.832Z,100815.95
2017-05-29T06:12:51.419Z,100820.84
2017-05-29T06:15:19.023Z,100814.80
2017-05-29T06:17:46.600Z,100815.70
2017-05-29T06:20:14.219Z,100813.22
2017-05-29T06:22:41.750Z,100812.23
2017-05-29T06:25:09.303Z,100814.70
2017-05-29T06:27:38.336Z,100819.30
2017-05-29T06:30:06.259Z,100811.62
2017-05-29T06:35:10.835Z,100800.33
2017-05-29T06:37:38.364Z,100808.42
2017-05-29T06:40:05.884Z,100807.88
2017-05-29T06:42:33.423Z,100812.53
2017-05-29T06:45:00.947Z,100808.00
2017-05-29T06:47:28.584Z,100802.84
2017-05-29T06:49:56.109Z,100798.60
2017-05-29T06:52:23.623Z,100800.33
2017-05-29T06:54:51.171Z,100797.11
2017-05-29T06:57:18.696Z,100796.22
2017-05-29T06:59:46.240Z,100798.59
2017-05-29T07:02:13.750Z,100792.95
2017-05-29T07:04:41.311Z,100793.86
2017-05-29T07:07:08.842Z,100786.12
2017-05-29T07:09:36.430Z,100783.00
2017-05-29T07:12:03.983Z,100785.69
2017-05-29T07:14:31.524Z,100781.73
2017-05-29T07:16:59.074Z,100782.50
2017-05-29T07:19:26.587Z,100773.62
2017-05-29T07:21:54.174Z,100780.36
2017-05-29T07:24:21.711Z,100778.68
2017-05-29T07:26:49.231Z,100785.59
2017-05-29T07:29:16.784Z,100781.99
2017-05-29T07:31:44.299Z,100780.49
2017-05-29T07:34:11.847Z,100779.55
2017-05-29T07:36:39.383Z,100778.32
2017-05-29T07:39:06.987Z,100777.55
2017-05-29T07:41:34.524Z,100776.39
2017-05-29T07:44:02.145Z,100780.29
2017-05-29T07:46:29.692Z,100782.02
2017-05-29T07:48:57.206Z,100785.23
2017-05-29T07:51:24.761Z,100784.88
2017-05-29T07:53:52.283Z,100787.99
2017-05-29T07:56:19.812Z,100789.98
2017-05-29T07:58:47.379Z,100790.61
2017-05-29T08:01:14.893Z,100793.59
2017-05-29T08:03:42.484Z,100786.25
2017-05-29T08:06:09.992Z,100779.43
2017-05-29T08:08:37.580Z,100780.16
2017-05-29T08:11:05.113Z,100776.30
2017-05-29T08:13:32.628Z,100777.58
2017-05-29T08:16:00.201Z,100779.58
2017-05-29T08:18:27.800Z,100771.24
2017-05-29T08:20:55.331Z,100767.89
2017-05-29T08:23:22.823Z,100776.41
2017-05-29T08:25:50.372Z,100768.87
2017-05-29T08:28:17.888Z,100764.02
2017-05-29T08:30:45.462Z,100762.61
2017-05-29T08:33:12.987Z,100759.86
2017-05-29T08:35:40.515Z,100751.98
2017-05-29T08:38:08.093Z,100749.98
2017-05-29T08:40:35.608Z,100751.09
2017-05-29T08:43:03.491Z,100749.91
2017-05-29T08:45:30.995Z,100752.52
2017-05-29T08:47:58.511Z,100754.21
2017-05-29T08:50:26.059Z,100748.84
2017-05-29T08:52:53.665Z,100748.20
2017-05-29T08:55:21.280Z,100741.05
2017-05-29T08:57:48.800Z,100748.02
2017-05-29T09:00:16.667Z,100745.73
2017-05-29T09:02:44.194Z,100739.61
2017-05-29T09:05:12.177Z,100736.32
2017-05-29T09:07:39.736Z,100734.47
2017-05-29T09:10:07.296Z,100731.58
2017-05-29T09:12:34.877Z,100727.92
2017-05-29T09:15:02.391Z,100735.52
2017-05-29T09:17:29.983Z,100723.77
2017-05-29T09:19:57.532Z,100715.34
2017-05-29T09:22:25.082Z,100720.12
2017-05-29T09:24:52.631Z,100717.20
2017-05-29T09:27:20.167Z,100713.12
2017-05-29T09:29:47.770Z,100712.13
2017-05-29T09:32:15.308Z,100708.30
2017-05-29T09:34:42.832Z,100704.36
2017-05-29T09:37:10.397Z,100706.24
2017-05-29T09:39:37.931Z,100697.03
2017-05-29T09:42:05.501Z,100695.81
2017-05-29T09:44:33.026Z,100697.28
2017-05-29T09:47:00.598Z,100697.09
2017-05-29T09:49:28.118Z,100695.42
2017-05-29T09:51:55.668Z,100699.09
2017-05-29T09:54:23.218Z,100687.84
2017-05-29T09:56:50.755Z,100684.55
2017-05-29T09:59:18.400Z,100682.22
2017-05-29T10:01:45.928Z,100677.22
2017-05-29T10:04:13.447Z,100681.82
2017-05-29T10:06:41.008Z,100678.80
2017-05-29T10:09:08.528Z,100675.25
2017-05-29T10:11:36.136Z,100670.16
2017-05-29T10:14:03.673Z,100673.71
2017-05-29T10:16:31.235Z,100675.77
2017-05-29T10:18:58.787Z,100668.69
2017-05-29T10:21:26.311Z,100687.08
2017-05-29T10:23:53.884Z,100657.86
2017-05-29T10:26:21.391Z,100659.23
2017-05-29T10:28:48.920Z,100656.30
2017-05-29T10:31:16.467Z,100660.45
2017-05-29T10:33:44.003Z,100657.31
2017-05-29T10:36:11.567Z,100653.73
2017-05-29T10:38:39.090Z,100655.50
2017-05-29T10:41:06.641Z,100651.75
2017-05-29T10:43:34.817Z,100646.20
2017-05-29T10:46:02.382Z,100640.05
2017-05-29T10:48:29.932Z,100641.01
2017-05-29T10:50:57.495Z,100641.95
2017-05-29T10:53:25.051Z,100647.45
2017-05-29T10:55:52.591Z,100646.07
2017-05-29T10:58:20.483Z,100642.33
2017-05-29T11:00:48.075Z,100639.52
2017-05-29T11:03:15.638Z,100635.33
2017-05-29T11:05:43.316Z,100636.22
2017-05-29T11:08:10.875Z,100636.00
2017-05-29T11:10:38.505Z,100639.08
2017-05-29T11:13:06.104Z,100644.44
2017-05-29T11:15:33.687Z,100642.22
2017-05-29T11:18:01.259Z,100630.48
2017-05-29T11:20:28.805Z,100642.48
2017-05-29T11:22:56.387Z,100638.61
2017-05-29T11:25:23.904Z,100626.72
2017-05-29T11:27:51.431Z,100625.07
2017-05-29T11:30:19.002Z,100625.48
2017-05-29T11:32:46.543Z,100626.74
2017-05-29T11:35:14.095Z,100621.33
2017-05-29T11:37:41.620Z,100612.20
2017-05-29T11:40:09.159Z,100606.87
2017-05-29T11:42:36.692Z,100603.11
2017-05-29T11:45:04.233Z,100604.34
2017-05-29T11:47:31.751Z,100600.98
2017-05-29T11:49:59.312Z,100596.47
2017-05-29T11:52:26.833Z,100595.45
2017-05-29T11:54:54.352Z,100583.78
2017-05-29T11:57:21.908Z,100590.16
2017-05-29T11:59:49.426Z,100586.22
2017-05-29T12:02:16.987Z,100577.97
2017-05-29T12:04:44.607Z,100589.68
2017-05-29T12:07:12.164Z,100594.19
2017-05-29T12:09:39.704Z,100586.45
2017-05-29T12:12:07.280Z,100584.62
2017-05-29T12:14:34.876Z,100567.45
2017-05-29T12:17:02.395Z,100571.03
2017-05-29T12:19:29.985Z,100566.83
2017-05-29T12:21:57.495Z,100566.84
2017-05-29T12:24:25.032Z,100566.76
2017-05-29T12:26:52.602Z,100562.76
2017-05-29T12:29:20.194Z,100549.44
2017-05-29T12:31:47.740Z,100560.45
2017-05-29T12:34:15.326Z,100568.77
2017-05-29T12:36:42.863Z,100553.76
2017-05-29T12:39:10.389Z,100558.72
2017-05-29T12:41:37.935Z,100565.05
2017-05-29T12:44:05.470Z,100555.72
2017-05-29T12:46:33.020Z,100557.64
2017-05-29T12:49:00.556Z,100547.24
2017-05-29T12:51:28.133Z,100557.91
2017-05-29T12:53:55.663Z,100557.30
2017-05-29T12:56:23.183Z,100560.84
2017-05-29T12:58:50.738Z,100555.15
2017-05-29T13:01:18.312Z,100556.70
2017-05-29T13:03:45.847Z,100551.45
2017-05-29T13:06:13.404Z,100557.41
2017-05-29T13:08:40.956Z,100546.41
2017-05-29T13:11:08.494Z,100545.03
2017-05-29T13:13:36.111Z,100549.11
2017-05-29T13:16:03.644Z,100549.53
2017-05-29T13:18:31.173Z,100549.34
2017-05-29T13:20:58.734Z,100546.80
2017-05-29T13:23:26.267Z,100541.50
2017-05-29T13:25:53.815Z,100542.01
2017-05-29T13:28:21.332Z,100532.02
2017-05-29T13:30:48.886Z,100528.72
2017-05-29T13:33:16.416Z,100534.54
2017-05-29T13:35:43.987Z,100543.30
2017-05-29T13:38:11.503Z,100538.45
2017-05-29T13:40:39.052Z,100546.41
2017-05-29T13:43:06.569Z,100541.72
2017-05-29T13:45:34.115Z,100546.17
2017-05-29T13:48:01.635Z,100534.26
2017-05-29T13:50:29.205Z,100533.96
2017-05-29T13:52:56.732Z,100528.05
2017-05-29T13:55:24.300Z,100524.32
2017-05-29T13:57:51.826Z,100523.16
2017-05-29T14:00:19.358Z,100521.22
2017-05-29T14:02:46.909Z,100521.42
2017-05-29T14:05:14.427Z,100520.76
2017-05-29T14:07:41.996Z,100524.67
2017-05-29T14:10:09.520Z,100520.14
2017-05-29T14:12:37.058Z,100514.17
2017-05-29T14:15:04.656Z,100507.30
2017-05-29T14:17:32.184Z,100501.11
2017-05-29T14:19:59.699Z,100493.66
2017-05-29T14:22:27.250Z,100493.67
2017-05-29T14:24:54.773Z,100498.12
2017-05-29T14:27:22.319Z,100495.42
2017-05-29T14:29:49.880Z,100491.88
2017-05-29T14:32:17.432Z,100481.69
2017-05-29T14:34:44.955Z,100495.16
2017-05-29T14:37:12.515Z,100493.66
2017-05-29T14:39:40.057Z,100492.44
2017-05-29T14:42:07.655Z,100490.98
2017-05-29T14:44:35.187Z,100491.77
2017-05-29T14:47:02.711Z,100491.16
2017-05-29T14:49:30.271Z,100479.39
2017-05-29T14:51:57.791Z,100482.45
2017-05-29T14:54:25.345Z,100476.06
2017-05-29T14:56:52.867Z,100479.08
2017-05-29T14:59:20.784Z,100483.91
2017-05-29T15:01:48.304Z,100474.05
2017-05-29T15:04:15.816Z,100477.86
2017-05-29T15:06:43.375Z,100481.73
2017-05-29T15:09:10.915Z,100475.73
2017-05-29T15:11:38.520Z,100471.65
2017-05-29T15:14:06.031Z,100465.34
2017-05-29T15:16:33.586Z,100467.46
2017-05-29T15:19:01.117Z,100468.80
2017-05-29T15:21:28.643Z,100467.77
2017-05-29T15:23:56.188Z,100465.08
2017-05-29T15:26:23.731Z,100470.48
2017-05-29T15:28:51.300Z,100468.67
2017-05-29T15:31:18.823Z,100460.29
2017-05-29T15:33:46.357Z,100457.81
2017-05-29T15:36:13.916Z,100466.56
2017-05-29T15:38:41.442Z,100453.91
2017-05-29T15:41:09.021Z,100451.50
2017-05-29T15:43:36.580Z,100458.45
2017-05-29T15:46:04.172Z,100462.02
2017-05-29T15:48:31.720Z,100457.14
2017-05-29T15:50:59.297Z,100457.55
2017-05-29T15:53:26.824Z,100465.66
2017-05-29T15:55:54.397Z,100458.27
2017-05-29T15:58:21.916Z,100455.73
2017-05-29T16:00:49.468Z,100455.97
2017-05-29T16:03:17.021Z,100449.16
2017-05-29T16:05:44.541Z,100450.45
2017-05-29T16:08:12.101Z,100452.62
2017-05-29T16:10:39.666Z,100450.06
2017-05-29T16:13:07.211Z,100452.66
2017-05-29T16:15:34.880Z,100453.78
2017-05-29T16:18:02.422Z,100453.02
2017-05-29T16:20:29.955Z,100454.92
2017-05-29T16:22:57.556Z,100451.47
2017-05-29T16:25:25.089Z,100451.91
2017-05-29T16:27:52.612Z,100448.66
2017-05-29T16:30:20.169Z,100453.78
2017-05-29T16:32:47.687Z,100453.75
2017-05-29T16:35:15.225Z,100455.64
2017-05-29T16:37:42.755Z,100469.70
2017-05-29T16:40:10.316Z,100460.30
2017-05-29T16:42:37.860Z,100463.45
2017-05-29T16:45:05.455Z,100471.61
2017-05-29T16:47:33.042Z,100473.63
2017-05-29T16:50:00.722Z,100467.67
2017-05-29T16:52:28.288Z,100472.81
2017-05-29T16:54:55.805Z,100472.20
2017-05-29T16:57:23.366Z,100466.89
2017-05-29T16:59:50.903Z,100466.34
2017-05-29T17:02:18.504Z,100467.91
2017-05-29T17:04:46.048Z,100462.59
2017-05-29T17:07:13.628Z,100465.59
2017-05-29T17:09:41.184Z,100462.46
2017-05-29T17:12:08.772Z,100463.08
2017-05-29T17:14:36.419Z,100460.42
2017-05-29T17:17:03.954Z,100459.23
2017-05-29T17:19:31.540Z,100468.94
2017-05-29T17:21:59.140Z,100468.63
2017-05-29T17:24:26.719Z,100476.86
2017-05-29T17:26:54.323Z,100473.36
2017-05-29T17:29:21.874Z,100485.58
2017-05-29T17:31:49.404Z,100493.32
2017-05-29T17:34:17.066Z,100488.65
2017-05-29T17:36:44.602Z,100485.52
2017-05-29T17:39:12.154Z,100486.22
2017-05-29T17:41:39.696Z,100481.77
2017-05-29T17:44:07.346Z,100488.37
2017-05-29T17:46:34.916Z,100486.91
2017-05-29T17:49:02.592Z,100492.75
2017-05-29T17:51:30.167Z,100511.69
2017-05-29T17:53:57.708Z,100541.70
2017-05-29T17:56:25.344Z,100551.58
2017-05-29T17:58:52.912Z,100554.70
2017-05-29T18:01:20.553Z,100552.86
2017-05-29T18:03:48.111Z,100552.30
2017-05-29T18:06:15.731Z,100547.66
2017-05-29T18:08:43.276Z,100548.43
2017-05-29T18:11:10.835Z,100552.00
2017-05-29T18:13:38.371Z,100552.24
2017-05-29T18:16:05.943Z,100558.33
2017-05-29T18:18:33.488Z,100555.50
2017-05-29T18:21:01.144Z,100550.57
2017-05-29T18:23:28.675Z,100550.27
2017-05-29T18:25:56.219Z,100546.28
2017-05-29T18:28:23.795Z,100533.43
2017-05-29T18:30:51.330Z,100524.67
2017-05-29T18:33:18.891Z,100527.59
2017-05-29T18:35:46.413Z,100519.86
2017-05-29T18:38:13.985Z,100521.09
2017-05-29T18:40:41.532Z,100520.51
2017-05-29T18:43:09.115Z,100518.80
2017-05-29T18:45:36.675Z,100512.26
2017-05-29T18:48:04.195Z,100506.13
2017-05-29T18:50:31.798Z,100503.33
2017-05-29T18:52:59.373Z,100499.85
2017-05-29T18:55:26.951Z,100499.89
2017-05-29T18:57:54.491Z,100498.20
2017-05-29T19:00:22.066Z,100497.98
2017-05-29T19:02:49.623Z,100506.61
2017-05-29T19:05:17.163Z,100501.64
2017-05-29T19:07:44.725Z,100502.95
2017-05-29T19:10:12.265Z,100515.44
2017-05-29T19:12:39.813Z,100516.75
2017-05-29T19:15:07.332Z,100510.78
2017-05-29T19:17:34.933Z,100513.84
2017-05-29T19:20:02.457Z,100517.02
2017-05-29T19:22:30.009Z,100516.47
2017-05-29T19:24:57.593Z,100512.95
2017-05-29T19:27:25.130Z,100510.81
2017-05-29T19:29:52.731Z,100515.42
2017-05-29T19:32:20.262Z,100521.61
2017-05-29T19:34:47.890Z,100517.19
2017-05-29T19:37:15.449Z,100523.52
2017-05-29T19:39:42.982Z,100521.92
2017-05-29T19:42:10.542Z,100526.85
2017-05-29T19:44:38.096Z,100520.47
2017-05-29T19:47:05.669Z,100527.95
2017-05-29T19:49:33.184Z,100534.89
2017-05-29T19:52:00.772Z,100540.17
2017-05-29T19:54:28.337Z,100544.09
2017-05-29T19:56:55.907Z,100546.11
2017-05-29T19:59:23.470Z,100548.55
2017-05-29T20:01:50.999Z,100545.66
2017-05-29T20:04:18.573Z,100547.16
2017-05-29T20:06:46.112Z,100549.24
2017-05-29T20:09:13.800Z,100559.10
2017-05-29T20:11:41.437Z,100564.02
2017-05-29T20:14:09.012Z,100557.56
2017-05-29T20:16:36.615Z,100558.27
2017-05-29T20:19:04.227Z,100566.70
2017-05-29T20:21:31.796Z,100567.30
2017-05-29T20:23:59.556Z,100570.27
2017-05-29T20:26:27.130Z,100581.14
2017-05-29T20:28:54.775Z,100590.63
2017-05-29T20:31:22.352Z,100586.81
2017-05-29T20:33:49.879Z,100599.73
2017-05-29T20:36:17.428Z,100606.95
2017-05-29T20:38:44.991Z,100606.64
2017-05-29T20:41:12.524Z,100616.05
2017-05-29T20:43:40.103Z,100624.08
2017-05-29T20:46:07.656Z,100625.52
2017-05-29T20:48:35.285Z,100630.48
2017-05-29T20:51:02.810Z,100632.20
2017-05-29T20:53:30.412Z,100635.48
2017-05-29T20:55:57.975Z,100631.02
2017-05-29T20:58:25.569Z,100625.52
2017-05-29T21:00:53.204Z,100620.64
2017-05-29T21:03:20.755Z,100623.42
2017-05-29T21:05:48.369Z,100620.61
2017-05-29T21:08:15.920Z,100614.68
2017-05-29T21:10:43.448Z,100622.27
2017-05-29T21:13:11.003Z,100622.78
2017-05-29T21:15:38.515Z,100616.39
2017-05-29T21:18:06.071Z,100622.11
2017-05-29T21:20:33.602Z,100626.05
2017-05-29T21:23:01.196Z,100624.48
2017-05-29T21:25:28.856Z,100620.73
2017-05-29T21:27:56.415Z,100618.71
2017-05-29T21:30:23.975Z,100620.09
2017-05-29T21:32:51.546Z,100612.81
2017-05-29T21:35:19.080Z,100613.79
2017-05-29T21:37:46.600Z,100610.59
2017-05-29T21:40:14.145Z,100605.67
2017-05-29T21:42:41.712Z,100610.95
2017-05-29T21:45:09.266Z,100611.84
2017-05-29T21:47:36.784Z,100608.27
2017-05-29T21:50:04.350Z,100619.15
2017-05-29T21:52:31.872Z,100619.11
2017-05-29T21:54:59.419Z,100625.94
2017-05-29T21:57:26.953Z,100629.55
2017-05-29T21:59:54.515Z,100634.50
2017-05-29T22:02:22.026Z,100636.83
2017-05-29T22:04:49.753Z,100632.39
2017-05-29T22:07:17.274Z,100642.02
2017-05-29T22:09:44.871Z,100643.70
2017-05-29T22:12:12.419Z,100648.72
2017-05-29T22:14:39.947Z,100660.42
2017-05-29T22:17:07.489Z,100654.44
2017-05-29T22:19:35.022Z,100656.77
2017-05-29T22:22:02.580Z,100654.30
2017-05-29T22:24:30.123Z,100655.36
2017-05-29T22:26:57.796Z,100657.58
2017-05-29T22:29:25.333Z,100663.89
2017-05-29T22:31:52.936Z,100655.94
2017-05-29T22:34:20.581Z,100653.64
2017-05-29T22:36:48.142Z,100651.09
2017-05-29T22:39:15.737Z,100649.12
2017-05-29T22:41:43.331Z,100648.03
2017-05-29T22:44:10.879Z,100643.03
2017-05-29T22:46:38.444Z,100645.28
2017-05-29T22:49:06.036Z,100650.59
2017-05-29T22:51:33.612Z,100652.14
2017-05-29T22:54:01.166Z,100648.76
2017-05-29T22:56:28.730Z,100643.55
2017-05-29T22:58:56.264Z,100649.86
2017-05-29T23:01:23.826Z,100645.01
2017-05-29T23:03:51.369Z,100641.17
2017-05-29T23:06:18.939Z,100642.86
2017-05-29T23:08:46.481Z,100635.14
2017-05-29T23:11:14.386Z,100629.05
2017-05-29T23:13:41.913Z,100628.00
2017-05-29T23:16:09.461Z,100636.09
2017-05-29T23:18:37.075Z,100640.71
2017-05-29T23:21:04.649Z,100633.17
2017-05-29T23:23:32.179Z,100640.39
2017-05-29T23:25:59.700Z,100648.13
2017-05-29T23:28:27.262Z,100669.42
2017-05-29T23:30:54.791Z,100674.27
2017-05-29T23:33:22.375Z,100683.80
2017-05-29T23:35:49.908Z,100685.68
2017-05-29T23:38:17.537Z,100693.22
2017-05-29T23:40:45.076Z,100693.52
2017-05-29T23:43:12.673Z,100680.78
2017-05-29T23:45:40.207Z,100684.34
2017-05-29T23:48:07.754Z,100691.12
2017-05-29T23:50:35.303Z,100689.21
2017-05-29T23:53:02.833Z,100688.58
2017-05-29T23:55:30.387Z,100687.10
2017-05-29T23:57:57.957Z,100692.40
